createdAt,value
2023-04-13T00:01:25.610Z,4.18
2023-04-13T00:06:30.460Z,8.68
2023-04-13T00:11:33.545Z,5.60
2023-04-13T00:16:36.727Z,4.63
2023-04-13T00:21:41.948Z,5.47
2023-04-13T00:26:45.080Z,3.33
2023-04-13T00:31:48.165Z,3.15
2023-04-13T00:36:54.194Z,7.63
2023-04-13T00:41:59.204Z,4.65
2023-04-13T00:47:02.728Z,4.40
2023-04-13T00:52:09.962Z,3.55
2023-04-13T00:57:13.282Z,6.57
2023-04-13T01:02:16.528Z,2.70
2023-04-13T01:07:25.687Z,8.82
2023-04-13T01:12:32.749Z,9.98
2023-04-13T01:17:38.944Z,7.72
2023-04-13T01:22:45.659Z,6.22
2023-04-13T01:27:52.838Z,3.03
2023-04-13T01:32:56.623Z,7.43
2023-04-13T01:38:00.477Z,3.85
2023-04-13T01:43:07.662Z,4.70
2023-04-13T01:48:29.169Z,8.38
2023-04-13T01:53:38.515Z,6.57
2023-04-13T01:58:44.065Z,5.82
2023-04-13T02:03:50.930Z,5.22
2023-04-13T02:08:54.798Z,6.88
2023-04-13T02:13:59.673Z,5.03
2023-04-13T02:19:03.076Z,4.88
2023-04-13T02:24:07.484Z,5.55
2023-04-13T02:29:11.923Z,6.75
2023-04-13T02:34:15.026Z,3.33
2023-04-13T02:39:19.569Z,6.13
2023-04-13T02:44:24.144Z,5.38
2023-04-13T02:49:35.049Z,8.93
2023-04-13T02:55:01.211Z,6.07
2023-04-13T03:00:13.361Z,4.18
2023-04-13T03:05:26.606Z,3.20
2023-04-13T03:10:31.269Z,5.25
2023-04-13T03:15:37.344Z,6.50
2023-04-13T03:20:41.879Z,3.63
2023-04-13T03:25:45.092Z,5.15
2023-04-13T03:30:50.318Z,4.50
2023-04-13T03:35:53.685Z,7.43
2023-04-13T03:41:03.448Z,6.47
2023-04-13T03:46:09.990Z,5.13
2023-04-13T03:51:14.188Z,5.25
2023-04-13T03:56:24.431Z,6.75
2023-04-13T04:01:31.748Z,6.13
2023-04-13T04:06:35.390Z,6.35
2023-04-13T04:11:48.711Z,6.75
2023-04-13T04:17:00.608Z,6.32
2023-04-13T04:22:06.938Z,6.43
2023-04-13T04:27:15.463Z,3.92
2023-04-13T04:32:24.123Z,5.32
2023-04-13T04:37:29.301Z,10.25
2023-04-13T04:42:43.537Z,6.78
2023-04-13T04:47:57.429Z,7.70
2023-04-13T04:53:02.798Z,10.80
2023-04-13T04:58:06.664Z,10.32
2023-04-13T05:03:12.872Z,13.57
2023-04-13T05:08:21.132Z,10.05
2023-04-13T05:13:26.337Z,12.15
2023-04-13T05:18:46.129Z,14.25
2023-04-13T05:23:59.993Z,15.95
2023-04-13T05:29:04.716Z,12.85
2023-04-13T05:34:13.212Z,16.67
2023-04-13T05:39:22.320Z,13.70
2023-04-13T05:44:25.742Z,15.00
2023-04-13T05:49:30.844Z,11.13
2023-04-13T05:54:34.251Z,19.52
2023-04-13T05:59:38.486Z,12.63
2023-04-13T06:04:43.547Z,9.80
2023-04-13T06:09:47.230Z,13.38
2023-04-13T06:14:50.324Z,15.68
2023-04-13T06:19:55.401Z,18.00
2023-04-13T06:24:58.633Z,13.05
2023-04-13T06:30:02.789Z,16.60
2023-04-13T06:35:10.928Z,16.42
2023-04-13T06:45:30.970Z,14.30
2023-04-13T06:50:38.086Z,16.25
2023-04-13T06:55:45.010Z,13.40
2023-04-13T07:00:48.434Z,15.50
2023-04-13T07:05:53.091Z,7.25
2023-04-13T07:10:57.988Z,8.57
2023-04-13T07:16:11.935Z,9.48
2023-04-13T07:21:19.749Z,10.30
2023-04-13T07:26:32.901Z,19.85
2023-04-13T07:31:37.748Z,14.10
2023-04-13T07:36:43.763Z,10.38
2023-04-13T07:41:50.147Z,12.13
2023-04-13T07:47:14.190Z,12.70
2023-04-13T07:52:21.614Z,13.65
2023-04-13T07:57:26.188Z,11.10
2023-04-13T08:02:35.000Z,13.73
2023-04-13T08:07:39.945Z,13.55
2023-04-13T08:12:43.851Z,13.52
2023-04-13T08:17:48.551Z,11.80
2023-04-13T08:22:57.559Z,12.68
2023-04-13T08:28:01.308Z,11.85
2023-04-13T08:33:05.494Z,14.82
2023-04-13T08:38:10.185Z,15.27
2023-04-13T08:43:18.881Z,17.13
2023-04-13T08:48:23.822Z,11.93
2023-04-13T08:53:29.985Z,15.32
2023-04-13T08:58:35.999Z,15.05
2023-04-13T09:03:41.744Z,10.88
2023-04-13T09:08:46.990Z,16.95
2023-04-13T09:13:51.928Z,18.83
2023-04-13T09:18:55.771Z,19.50
2023-04-13T09:24:00.609Z,13.68
2023-04-13T09:29:05.404Z,18.45
2023-04-13T09:34:09.040Z,16.30
2023-04-13T09:39:14.287Z,12.77
2023-04-13T09:44:20.218Z,12.55
2023-04-13T09:49:24.142Z,13.10
2023-04-13T09:54:28.839Z,10.95
2023-04-13T09:59:33.197Z,12.70
2023-04-13T10:04:36.615Z,20.83
2023-04-13T10:09:42.100Z,16.75
2023-04-13T10:14:48.428Z,19.38
2023-04-13T10:19:52.771Z,14.52
2023-04-13T10:24:57.339Z,20.30
2023-04-13T10:30:01.031Z,14.82
2023-04-13T10:35:10.098Z,13.73
2023-04-13T10:40:16.317Z,14.57
2023-04-13T10:45:20.574Z,13.05
2023-04-13T10:50:24.381Z,16.67
2023-04-13T10:55:29.082Z,12.88
2023-04-13T11:00:45.397Z,15.27
2023-04-13T11:05:57.131Z,11.05
2023-04-13T11:11:01.701Z,15.05
2023-04-13T11:16:05.432Z,15.13
2023-04-13T11:21:14.913Z,10.23
2023-04-13T11:26:19.617Z,14.52
2023-04-13T11:31:22.784Z,9.10
2023-04-13T11:36:27.160Z,12.32
2023-04-13T11:41:32.872Z,11.85
2023-04-13T11:46:36.169Z,10.70
2023-04-13T11:51:39.463Z,11.07
2023-04-13T11:56:43.996Z,10.90
2023-04-13T12:01:51.471Z,16.52
2023-04-13T12:06:59.181Z,10.77
2023-04-13T12:12:29.757Z,13.88
2023-04-13T12:17:38.868Z,15.18
2023-04-13T12:22:54.952Z,13.52
2023-04-13T12:28:04.394Z,11.85
2023-04-13T12:33:07.572Z,10.32
2023-04-13T12:38:10.691Z,17.15
2023-04-13T12:43:15.442Z,11.68
2023-04-13T12:48:19.053Z,11.80
2023-04-13T12:53:22.361Z,12.52
2023-04-13T12:58:26.821Z,13.38
2023-04-13T13:03:30.549Z,6.82
2023-04-13T13:08:36.806Z,10.55
2023-04-13T13:13:43.036Z,8.52
2023-04-13T13:18:50.885Z,15.35
2023-04-13T13:23:54.586Z,11.35
2023-04-13T13:28:59.299Z,13.13
2023-04-13T13:34:02.554Z,8.52
2023-04-13T13:39:06.358Z,7.93
2023-04-13T13:44:10.990Z,13.77
2023-04-13T13:49:14.294Z,12.10
2023-04-13T13:54:36.094Z,12.65
2023-04-13T13:59:40.534Z,13.77
2023-04-13T14:04:43.687Z,7.07
2023-04-13T14:09:46.984Z,5.90
2023-04-13T14:14:51.476Z,11.15
2023-04-13T14:19:54.646Z,10.75
2023-04-13T14:24:57.752Z,17.15
2023-04-13T14:30:02.317Z,9.93
2023-04-13T14:35:05.762Z,17.42
2023-04-13T14:40:13.456Z,14.85
2023-04-13T14:45:18.216Z,10.07
2023-04-13T14:50:21.556Z,7.15
2023-04-13T14:55:24.711Z,11.85
2023-04-13T15:00:39.067Z,10.15
2023-04-13T15:05:43.578Z,9.98
2023-04-13T15:10:47.016Z,12.10
2023-04-13T15:15:52.182Z,5.43
2023-04-13T15:20:55.485Z,9.27
2023-04-13T15:25:58.645Z,10.13
2023-04-13T15:31:03.278Z,11.25
2023-04-13T15:36:06.842Z,9.35
2023-04-13T15:41:10.486Z,11.40
2023-04-13T15:46:14.970Z,8.40
2023-04-13T15:51:18.080Z,10.55
2023-04-13T15:56:21.434Z,10.77
2023-04-13T16:01:25.935Z,9.70
2023-04-13T16:06:29.105Z,8.35
2023-04-13T16:11:32.366Z,8.40
2023-04-13T16:16:44.376Z,13.20
2023-04-13T16:21:50.812Z,5.75
2023-04-13T16:26:53.899Z,11.35
2023-04-13T16:31:58.417Z,11.75
2023-04-13T16:37:01.803Z,9.18
2023-04-13T16:42:05.068Z,8.63
2023-04-13T16:47:09.592Z,6.72
2023-04-13T16:52:12.878Z,7.00
2023-04-13T16:57:16.194Z,10.32
2023-04-13T17:02:31.304Z,4.78
2023-04-13T17:07:34.836Z,10.15
2023-04-13T17:12:37.922Z,12.93
2023-04-13T17:17:42.757Z,21.05
2023-04-13T17:22:46.238Z,8.15
2023-04-13T17:27:51.422Z,9.00
2023-04-13T17:32:57.361Z,8.27
2023-04-13T17:38:00.612Z,7.20
2023-04-13T17:43:03.665Z,6.95
2023-04-13T17:48:08.380Z,7.57
2023-04-13T17:53:11.510Z,5.00
2023-04-13T17:58:14.680Z,5.53
2023-04-13T18:03:19.521Z,7.55
2023-04-13T18:08:22.722Z,10.40
2023-04-13T18:13:25.877Z,9.98
2023-04-13T18:18:30.340Z,12.57
2023-04-13T18:23:33.401Z,6.57
2023-04-13T18:28:37.074Z,6.43
2023-04-13T18:33:44.059Z,4.45
2023-04-13T18:38:47.312Z,8.75
2023-04-13T18:43:50.452Z,6.13
2023-04-13T18:48:54.983Z,6.05
2023-04-13T18:53:58.271Z,9.05
2023-04-13T18:59:01.658Z,9.80
2023-04-13T19:04:06.625Z,12.32
2023-04-13T19:09:10.109Z,11.05
2023-04-13T19:14:13.272Z,5.35
2023-04-13T19:19:18.639Z,11.35
2023-04-13T19:24:21.900Z,10.20
2023-04-13T19:29:27.096Z,12.50
2023-04-13T19:34:31.564Z,14.40
2023-04-13T19:39:34.714Z,15.20
2023-04-13T19:44:37.773Z,17.10
2023-04-13T19:49:42.264Z,8.07
2023-04-13T19:54:45.812Z,12.40
2023-04-13T19:59:49.078Z,10.07
2023-04-13T20:04:53.970Z,12.35
2023-04-13T20:09:57.137Z,12.02
2023-04-13T20:15:00.235Z,9.82
2023-04-13T20:20:06.254Z,8.98
2023-04-13T20:25:11.050Z,9.20
2023-04-13T20:30:14.356Z,8.35
2023-04-13T20:35:19.914Z,10.18
2023-04-13T20:40:27.170Z,12.15
2023-04-13T20:45:30.685Z,7.20
2023-04-13T20:50:35.802Z,8.25
2023-04-13T20:55:39.259Z,8.70
2023-04-13T21:00:46.374Z,7.72
2023-04-13T21:05:55.289Z,12.20
2023-04-13T21:10:58.459Z,10.85
2023-04-13T21:16:01.661Z,10.65
2023-04-13T21:21:07.848Z,9.98
2023-04-13T21:26:10.926Z,8.73
2023-04-13T21:31:14.254Z,8.88
2023-04-13T21:41:25.029Z,11.77
2023-04-13T21:46:28.501Z,12.27
2023-04-13T21:51:33.172Z,13.40
2023-04-13T21:56:37.692Z,10.63
2023-04-13T22:01:41.007Z,10.50
2023-04-13T22:06:45.510Z,9.52
2023-04-13T22:11:48.623Z,12.75
2023-04-13T22:16:51.792Z,9.05
2023-04-13T22:21:56.266Z,9.43
2023-04-13T22:26:59.351Z,13.88
2023-04-13T22:32:02.475Z,15.65
2023-04-13T22:37:07.057Z,16.73
2023-04-13T22:42:10.226Z,13.63
2023-04-13T22:47:13.316Z,13.70
2023-04-13T22:52:19.884Z,9.57
2023-04-13T22:57:22.925Z,14.27
2023-04-13T23:02:26.187Z,12.07
2023-04-13T23:07:30.874Z,9.68
2023-04-13T23:12:34.040Z,10.52
2023-04-13T23:17:37.275Z,9.27
2023-04-13T23:22:41.783Z,9.48
2023-04-13T23:27:44.879Z,9.02
2023-04-13T23:32:48.094Z,11.30
2023-04-13T23:37:52.620Z,12.07
2023-04-13T23:42:56.065Z,10.23
2023-04-13T23:47:59.275Z,7.35
2023-04-13T23:53:03.856Z,11.07
2023-04-13T23:58:06.979Z,10.10
